createdAt,value
2022-10-05T00:07:52.264Z,100289.06
2022-10-05T00:10:29.415Z,100290.78
2022-10-05T00:16:24.354Z,100286.13
2022-10-05T00:19:11.612Z,100283.31
2022-10-05T00:25:24.481Z,100289.16
2022-10-05T00:27:56.068Z,100283.81
2022-10-05T00:30:25.176Z,100287.38
2022-10-05T00:33:20.642Z,100282.88
2022-10-05T00:35:49.581Z,100290.13
2022-10-05T00:38:22.232Z,100292.56
2022-10-05T00:41:28.151Z,100287.03
2022-10-05T00:44:13.273Z,100293.31
2022-10-05T00:47:16.212Z,100291.38
2022-10-05T00:53:26.383Z,100290.25
2022-10-05T01:06:23.151Z,100293.50
2022-10-05T01:09:43.211Z,100295.44
2022-10-05T01:12:18.775Z,100295.06
2022-10-05T01:18:51.263Z,100297.75
2022-10-05T01:21:37.285Z,100300.94
2022-10-05T01:24:32.196Z,100309.28
2022-10-05T01:27:15.791Z,100303.94
2022-10-05T01:30:21.591Z,100311.78
2022-10-05T01:33:19.176Z,100312.44
2022-10-05T01:36:16.979Z,100314.81
2022-10-05T01:38:50.851Z,100310.34
2022-10-05T01:41:49.266Z,100312.28
2022-10-05T01:44:20.575Z,100313.94
2022-10-05T01:47:03.291Z,100313.38
2022-10-05T01:49:33.086Z,100318.66
2022-10-05T02:02:58.304Z,100340.88
2022-10-05T02:15:22.822Z,100348.41
2022-10-05T02:18:08.992Z,100344.41
2022-10-05T02:20:54.774Z,100341.53
2022-10-05T02:23:25.487Z,100348.13
2022-10-05T02:25:56.458Z,100345.25
2022-10-05T02:28:54.738Z,100351.28
2022-10-05T02:31:45.963Z,100352.19
2022-10-05T02:34:37.456Z,100356.31
2022-10-05T02:40:31.803Z,100367.88
2022-10-05T02:53:19.551Z,100373.50
2022-10-05T03:02:48.355Z,100364.94
2022-10-05T03:05:23.143Z,100369.94
2022-10-05T03:08:27.873Z,100368.94
2022-10-05T03:11:17.193Z,100369.47
2022-10-05T03:13:46.910Z,100371.13
2022-10-05T03:16:40.257Z,100369.94
2022-10-05T03:19:31.651Z,100377.28
2022-10-05T03:29:02.104Z,100362.91
2022-10-05T03:31:50.476Z,100355.44
2022-10-05T03:34:18.233Z,100361.34
2022-10-05T03:36:49.275Z,100358.19
2022-10-05T03:39:53.472Z,100360.81
2022-10-05T03:42:57.413Z,100350.78
2022-10-05T03:45:36.643Z,100366.63
2022-10-05T03:48:28.768Z,100364.13
2022-10-05T03:51:15.686Z,100366.81
2022-10-05T03:54:07.102Z,100358.09
2022-10-05T03:56:55.614Z,100355.06
2022-10-05T03:59:41.572Z,100348.66
2022-10-05T04:02:15.958Z,100349.31
2022-10-05T04:04:47.661Z,100350.13
2022-10-05T04:07:34.506Z,100349.34
2022-10-05T04:10:25.891Z,100346.88
2022-10-05T04:13:03.222Z,100343.94
2022-10-05T04:55:28.538Z,100409.09
2022-10-05T04:58:15.153Z,100410.41
2022-10-05T05:01:25.096Z,100416.78
2022-10-05T05:07:56.427Z,100423.75
2022-10-05T05:10:49.743Z,100427.94
2022-10-05T05:13:42.155Z,100430.81
2022-10-05T05:19:50.842Z,100443.28
2022-10-05T05:22:42.502Z,100447.91
2022-10-05T05:28:42.809Z,100455.22
2022-10-05T05:35:00.903Z,100465.41
2022-10-05T05:44:28.044Z,100473.50
2022-10-05T05:47:10.568Z,100468.56
2022-10-05T05:49:40.556Z,100479.97
2022-10-05T05:52:20.504Z,100472.13
2022-10-05T05:54:54.963Z,100477.97
2022-10-05T05:57:42.043Z,100470.34
2022-10-05T06:00:08.957Z,100479.19
2022-10-05T06:02:48.158Z,100477.44
2022-10-05T06:05:24.331Z,100478.34
2022-10-05T06:07:53.095Z,100482.88
2022-10-05T06:10:22.900Z,100490.50
2022-10-05T06:13:01.814Z,100492.28
2022-10-05T06:15:32.714Z,100486.22
2022-10-05T06:18:03.157Z,100487.94
2022-10-05T06:20:39.562Z,100486.22
2022-10-05T06:23:12.590Z,100498.28
2022-10-05T06:25:52.758Z,100503.03
2022-10-05T06:28:19.842Z,100495.19
2022-10-05T06:31:01.047Z,100506.81
2022-10-05T06:33:39.271Z,100507.97
2022-10-05T06:36:09.028Z,100505.13
2022-10-05T06:38:39.176Z,100507.25
2022-10-05T06:41:13.561Z,100507.22
2022-10-05T06:43:46.787Z,100514.22
2022-10-05T06:46:18.656Z,100525.50
2022-10-05T06:49:11.891Z,100519.34
2022-10-05T06:55:18.421Z,100523.78
2022-10-05T06:58:11.293Z,100520.31
2022-10-05T07:00:46.460Z,100529.81
2022-10-05T07:03:22.278Z,100538.63
2022-10-05T07:05:59.951Z,100531.03
2022-10-05T07:08:26.863Z,100536.09
2022-10-05T07:11:03.497Z,100540.53
2022-10-05T07:13:33.064Z,100542.44
2022-10-05T07:15:59.714Z,100532.78
2022-10-05T07:18:44.948Z,100544.06
2022-10-05T07:21:14.656Z,100536.72
2022-10-05T07:23:53.085Z,100536.47
2022-10-05T07:26:29.079Z,100542.41
2022-10-05T07:29:08.065Z,100532.16
2022-10-05T07:31:58.472Z,100537.72
2022-10-05T07:34:39.331Z,100540.34
2022-10-05T07:37:30.651Z,100544.78
2022-10-05T07:40:18.271Z,100531.44
2022-10-05T07:43:04.050Z,100543.28
2022-10-05T07:45:36.919Z,100548.19
2022-10-05T07:48:12.811Z,100540.13
2022-10-05T07:50:46.414Z,100537.31
2022-10-05T07:53:21.214Z,100540.94
2022-10-05T07:55:51.685Z,100549.84
2022-10-05T07:58:31.606Z,100542.06
2022-10-05T08:01:11.434Z,100545.75
2022-10-05T08:03:43.825Z,100539.38
2022-10-05T08:06:18.453Z,100548.78
2022-10-05T08:11:15.172Z,100545.78
2022-10-05T08:13:51.949Z,100543.19
2022-10-05T08:16:19.436Z,100551.31
2022-10-05T08:18:59.103Z,100554.16
2022-10-05T08:21:39.031Z,100551.06
2022-10-05T08:24:26.099Z,100558.75
2022-10-05T08:27:02.286Z,100550.88
2022-10-05T08:29:37.928Z,100553.09
2022-10-05T08:32:06.497Z,100558.59
2022-10-05T08:34:45.949Z,100558.00
2022-10-05T08:37:24.223Z,100556.06
2022-10-05T08:39:56.122Z,100553.72
2022-10-05T08:42:42.088Z,100560.22
2022-10-05T08:45:25.482Z,100554.28
2022-10-05T08:48:18.873Z,100561.72
2022-10-05T08:51:04.482Z,100548.50
2022-10-05T08:53:43.401Z,100557.28
2022-10-05T08:56:29.189Z,100554.97
2022-10-05T08:59:10.186Z,100557.88
2022-10-05T09:01:55.702Z,100551.41
2022-10-05T09:04:33.366Z,100553.59
2022-10-05T09:07:08.894Z,100554.81
2022-10-05T09:09:56.258Z,100552.78
2022-10-05T09:12:46.504Z,100556.38
2022-10-05T09:15:32.008Z,100551.22
2022-10-05T09:18:17.638Z,100549.94
2022-10-05T09:20:47.287Z,100552.84
2022-10-05T09:23:34.406Z,100552.72
2022-10-05T09:26:07.575Z,100559.16
2022-10-05T09:28:42.500Z,100559.53
2022-10-05T09:31:15.457Z,100555.25
2022-10-05T09:33:45.695Z,100555.25
2022-10-05T09:36:28.315Z,100553.56
2022-10-05T09:39:13.525Z,100553.00
2022-10-05T09:41:55.586Z,100550.47
2022-10-05T09:44:41.560Z,100553.47
2022-10-05T09:47:27.253Z,100552.66
2022-10-05T09:49:56.881Z,100551.44
2022-10-05T09:52:42.310Z,100557.16
2022-10-05T09:55:21.307Z,100551.41
2022-10-05T09:57:53.212Z,100568.28
2022-10-05T10:00:39.196Z,100568.22
2022-10-05T10:03:13.874Z,100564.78
2022-10-05T10:05:52.926Z,100572.50
2022-10-05T10:08:32.578Z,100577.47
2022-10-05T10:11:07.773Z,100572.91
2022-10-05T10:13:56.019Z,100570.03
2022-10-05T10:16:37.155Z,100567.72
2022-10-05T10:19:15.625Z,100567.03
2022-10-05T10:21:55.037Z,100551.66
2022-10-05T10:24:32.323Z,100552.72
2022-10-05T10:27:11.055Z,100546.78
2022-10-05T10:29:46.434Z,100542.56
2022-10-05T10:32:16.352Z,100543.78
2022-10-05T10:34:46.060Z,100548.75
2022-10-05T10:37:31.516Z,100551.81
2022-10-05T10:40:13.127Z,100555.13
2022-10-05T10:42:52.024Z,100550.78
2022-10-05T10:45:27.614Z,100555.72
2022-10-05T10:47:54.759Z,100547.78
2022-10-05T10:50:23.635Z,100545.97
2022-10-05T10:53:10.605Z,100539.56
2022-10-05T10:55:52.041Z,100535.53
2022-10-05T10:58:25.014Z,100534.13
2022-10-05T11:00:54.886Z,100526.72
2022-10-05T11:03:40.403Z,100528.44
2022-10-05T11:06:10.136Z,100514.69
2022-10-05T11:08:36.894Z,100518.50
2022-10-05T11:11:31.215Z,100517.09
2022-10-05T11:14:02.767Z,100515.75
2022-10-05T11:16:29.507Z,100508.94
2022-10-05T11:19:12.391Z,100507.91
2022-10-05T11:21:52.138Z,100502.53
2022-10-05T11:24:39.052Z,100507.72
2022-10-05T11:30:06.421Z,100500.19
2022-10-05T11:32:36.509Z,100498.41
2022-10-05T11:35:24.743Z,100496.50
2022-10-05T11:37:52.006Z,100490.69
2022-10-05T11:40:37.054Z,100484.53
2022-10-05T11:43:15.834Z,100494.34
2022-10-05T11:45:51.691Z,100491.16
2022-10-05T11:48:21.499Z,100495.38
2022-10-05T11:51:03.632Z,100493.72
2022-10-05T11:53:37.734Z,100484.94
2022-10-05T11:56:10.769Z,100490.13
2022-10-05T11:58:41.365Z,100490.03
2022-10-05T12:01:20.305Z,100478.84
2022-10-05T12:04:07.339Z,100482.47
2022-10-05T12:06:52.533Z,100468.25
2022-10-05T12:09:36.279Z,100470.91
2022-10-05T12:12:21.228Z,100470.09
2022-10-05T12:14:47.924Z,100474.25
2022-10-05T12:17:35.142Z,100477.84
2022-10-05T12:20:34.036Z,100482.59
2022-10-05T12:23:11.977Z,100474.75
2022-10-05T12:25:44.346Z,100468.75
2022-10-05T12:28:17.463Z,100469.38
2022-10-05T12:30:59.166Z,100472.91
2022-10-05T12:33:31.764Z,100470.94
2022-10-05T12:36:01.940Z,100473.63
2022-10-05T12:38:34.539Z,100481.41
2022-10-05T12:41:13.665Z,100471.00
2022-10-05T12:43:54.364Z,100472.66
2022-10-05T12:46:24.134Z,100469.81
2022-10-05T12:48:53.139Z,100465.31
2022-10-05T12:51:30.497Z,100472.38
2022-10-05T12:53:59.927Z,100472.91
2022-10-05T12:56:37.363Z,100462.66
2022-10-05T12:59:11.544Z,100466.72
2022-10-05T13:01:41.304Z,100462.03
2022-10-05T13:04:19.551Z,100462.09
2022-10-05T13:06:46.202Z,100463.13
2022-10-05T13:09:39.381Z,100456.38
2022-10-05T13:15:32.726Z,100437.84
2022-10-05T13:18:13.981Z,100434.91
2022-10-05T13:20:47.072Z,100433.25
2022-10-05T13:23:18.150Z,100438.44
2022-10-05T13:25:53.600Z,100436.66
2022-10-05T13:28:43.984Z,100426.91
2022-10-05T13:31:19.125Z,100422.34
2022-10-05T13:33:48.901Z,100421.44
2022-10-05T13:36:35.997Z,100421.50
2022-10-05T13:39:27.951Z,100426.66
2022-10-05T13:42:00.155Z,100431.22
2022-10-05T13:44:36.055Z,100428.59
2022-10-05T13:47:16.914Z,100415.56
2022-10-05T13:49:43.711Z,100409.47
2022-10-05T13:52:29.174Z,100419.25
2022-10-05T13:55:02.164Z,100410.53
2022-10-05T13:57:45.391Z,100417.47
2022-10-05T14:00:20.258Z,100412.19
2022-10-05T14:02:53.693Z,100406.19
2022-10-05T14:05:24.938Z,100405.31
2022-10-05T14:07:58.646Z,100407.97
2022-10-05T14:10:42.034Z,100407.06
2022-10-05T14:13:17.692Z,100404.47
2022-10-05T14:15:55.829Z,100395.69
2022-10-05T14:18:23.998Z,100400.88
2022-10-05T14:21:01.511Z,100400.03
2022-10-05T14:23:29.226Z,100397.41
2022-10-05T14:25:56.303Z,100398.28
2022-10-05T14:28:27.823Z,100395.72
2022-10-05T14:30:59.532Z,100394.81
2022-10-05T14:33:27.784Z,100389.63
2022-10-05T14:35:57.992Z,100394.81
2022-10-05T14:38:32.622Z,100386.94
2022-10-05T14:41:14.906Z,100380.88
2022-10-05T14:43:49.512Z,100378.25
2022-10-05T14:46:25.313Z,100384.44
2022-10-05T14:49:14.035Z,100387.19
2022-10-05T14:51:42.394Z,100385.41
2022-10-05T14:54:30.493Z,100382.72
2022-10-05T14:56:57.213Z,100379.25
2022-10-05T14:59:38.346Z,100382.78
2022-10-05T15:02:14.183Z,100378.44
2022-10-05T15:04:44.502Z,100389.84
2022-10-05T15:07:21.827Z,100388.19
2022-10-05T15:09:51.812Z,100386.44
2022-10-05T15:12:22.662Z,100397.84
2022-10-05T15:14:51.575Z,100394.34
2022-10-05T15:17:20.877Z,100394.41
2022-10-05T15:19:47.465Z,100409.31
2022-10-05T15:22:31.850Z,100399.66
2022-10-05T15:25:22.399Z,100405.84
2022-10-05T15:27:58.400Z,100399.72
2022-10-05T15:30:25.126Z,100404.97
2022-10-05T15:33:10.599Z,100405.84
2022-10-05T15:35:48.858Z,100406.72
2022-10-05T15:38:26.728Z,100408.47
2022-10-05T15:40:59.636Z,100412.84
2022-10-05T15:43:30.920Z,100406.66
2022-10-05T15:46:07.086Z,100404.91
2022-10-05T15:48:52.219Z,100410.13
2022-10-05T15:51:24.658Z,100408.38
2022-10-05T15:54:27.495Z,100410.22
2022-10-05T15:57:06.630Z,100411.09
2022-10-05T15:59:51.658Z,100407.59
2022-10-05T16:02:22.831Z,100410.16
2022-10-05T16:04:55.647Z,100415.38
2022-10-05T16:07:46.938Z,100415.31
2022-10-05T16:10:20.158Z,100406.50
2022-10-05T16:12:46.768Z,100414.31
2022-10-05T16:15:29.218Z,100410.81
2022-10-05T16:18:06.147Z,100412.53
2022-10-05T16:20:51.419Z,100403.66
2022-10-05T16:23:36.881Z,100412.34
2022-10-05T16:26:15.555Z,100416.63
2022-10-05T16:28:42.225Z,100411.25
2022-10-05T16:31:17.865Z,100405.97
2022-10-05T16:33:48.171Z,100409.41
2022-10-05T16:36:44.631Z,100402.38
2022-10-05T16:39:31.496Z,100410.16
2022-10-05T16:42:04.034Z,100411.78
2022-10-05T16:44:53.487Z,100405.41
2022-10-05T16:47:32.315Z,100420.94
2022-10-05T16:50:02.133Z,100419.03
2022-10-05T16:52:29.095Z,100417.94
2022-10-05T16:54:57.524Z,100428.28
2022-10-05T16:57:28.453Z,100434.28
2022-10-05T17:00:01.151Z,100435.94
2022-10-05T17:02:35.388Z,100435.13
2022-10-05T17:05:05.028Z,100426.34
2022-10-05T17:07:39.522Z,100426.31
2022-10-05T17:10:25.067Z,100429.78
2022-10-05T17:13:11.633Z,100434.84
2022-10-05T17:15:50.231Z,100438.16
2022-10-05T17:18:27.348Z,100434.56
2022-10-05T17:20:53.926Z,100450.19
2022-10-05T17:23:56.138Z,100446.56
2022-10-05T17:26:22.878Z,100462.31
2022-10-05T17:28:52.363Z,100457.88
2022-10-05T17:31:21.894Z,100456.03
2022-10-05T17:34:26.465Z,100456.97
2022-10-05T17:37:19.776Z,100450.81
2022-10-05T17:39:46.675Z,100460.84
2022-10-05T17:42:39.626Z,100457.25
2022-10-05T17:45:12.430Z,100458.00
2022-10-05T17:47:57.552Z,100462.38
2022-10-05T17:50:59.611Z,100467.13
2022-10-05T17:53:55.219Z,100470.94
2022-10-05T17:56:22.766Z,100469.19
2022-10-05T17:58:55.456Z,100474.03
2022-10-05T18:01:40.613Z,100461.94
2022-10-05T18:04:13.070Z,100459.22
2022-10-05T18:07:00.080Z,100460.13
2022-10-05T18:09:27.844Z,100462.53
2022-10-05T18:12:25.998Z,100451.25
2022-10-05T18:15:00.803Z,100450.13
2022-10-05T18:17:44.331Z,100444.03
2022-10-05T18:20:14.893Z,100449.13
2022-10-05T18:22:46.543Z,100449.97
2022-10-05T18:25:31.928Z,100445.44
2022-10-05T18:28:00.956Z,100447.19
2022-10-05T18:30:31.177Z,100449.69
2022-10-05T18:33:07.843Z,100450.56
2022-10-05T18:35:38.214Z,100449.41
2022-10-05T18:38:24.012Z,100451.91
2022-10-05T18:40:56.262Z,100460.38
2022-10-05T18:43:41.000Z,100456.81
2022-10-05T18:46:13.599Z,100456.75
2022-10-05T18:48:40.344Z,100460.09
2022-10-05T18:51:14.786Z,100455.63
2022-10-05T18:53:43.565Z,100459.25
2022-10-05T18:56:20.577Z,100464.34
2022-10-05T18:59:09.233Z,100466.78
2022-10-05T19:01:59.935Z,100471.88
2022-10-05T19:04:47.115Z,100476.09
2022-10-05T19:07:23.008Z,100477.75
2022-10-05T19:09:49.598Z,100469.69
2022-10-05T19:12:37.012Z,100476.22
2022-10-05T19:15:16.038Z,100481.34
2022-10-05T19:17:56.297Z,100488.19
2022-10-05T19:20:26.033Z,100487.19
2022-10-05T19:23:17.867Z,100495.00
2022-10-05T19:25:50.580Z,100497.38
2022-10-05T19:28:29.294Z,100494.69
2022-10-05T19:31:16.310Z,100507.41
2022-10-05T19:33:46.047Z,100510.69
2022-10-05T19:36:25.802Z,100498.28
2022-10-05T19:38:55.570Z,100498.34
2022-10-05T19:41:40.944Z,100491.44
2022-10-05T19:44:13.633Z,100489.69
2022-10-05T19:46:53.752Z,100491.59
2022-10-05T19:49:46.481Z,100501.94
2022-10-05T19:52:21.201Z,100517.50
2022-10-05T19:54:49.925Z,100513.72
2022-10-05T19:57:17.993Z,100504.13
2022-10-05T19:59:46.877Z,100505.91
2022-10-05T20:02:17.327Z,100505.47
2022-10-05T20:04:45.622Z,100515.22
2022-10-05T20:07:14.173Z,100512.47
2022-10-05T20:09:54.644Z,100510.09
2022-10-05T20:12:24.771Z,100507.50
2022-10-05T20:15:26.589Z,100500.28
2022-10-05T20:18:11.478Z,100511.72
2022-10-05T20:20:43.294Z,100514.22
2022-10-05T20:23:38.545Z,100516.63
2022-10-05T20:26:23.937Z,100525.56
2022-10-05T20:28:51.172Z,100528.75
2022-10-05T20:31:20.175Z,100528.84
2022-10-05T20:33:48.634Z,100536.56
2022-10-05T20:36:15.243Z,100537.19
2022-10-05T20:38:42.673Z,100537.19
2022-10-05T20:41:09.595Z,100537.19
2022-10-05T20:43:39.094Z,100521.63
2022-10-05T20:46:06.467Z,100521.06
2022-10-05T20:48:33.165Z,100525.13
2022-10-05T20:51:00.410Z,100530.16
2022-10-05T20:53:27.082Z,100528.78
2022-10-05T20:55:53.771Z,100530.31
2022-10-05T20:58:20.450Z,100532.16
2022-10-05T21:01:05.891Z,100525.06
2022-10-05T21:03:33.244Z,100524.19
2022-10-05T21:06:00.038Z,100517.50
2022-10-05T21:08:27.085Z,100521.41
2022-10-05T21:10:53.906Z,100517.25
2022-10-05T21:13:20.563Z,100513.94
2022-10-05T21:15:47.258Z,100504.22
2022-10-05T21:18:15.871Z,100507.22
2022-10-05T21:20:42.486Z,100509.16
2022-10-05T21:23:09.233Z,100503.88
2022-10-05T21:25:35.932Z,100513.72
2022-10-05T21:28:02.898Z,100518.00
2022-10-05T21:30:29.602Z,100514.25
2022-10-05T21:32:56.222Z,100507.31
2022-10-05T21:35:22.929Z,100506.28
2022-10-05T21:37:49.830Z,100507.16
2022-10-05T21:40:17.033Z,100511.47
2022-10-05T21:42:43.689Z,100509.66
2022-10-05T21:45:10.624Z,100502.72
2022-10-05T21:47:37.312Z,100499.03
2022-10-05T21:50:05.420Z,100489.44
2022-10-05T21:52:32.911Z,100497.03
2022-10-05T21:54:59.591Z,100490.28
2022-10-05T21:57:26.362Z,100492.50
2022-10-05T21:59:53.171Z,100488.91
2022-10-05T22:02:19.792Z,100490.78
2022-10-05T22:04:46.384Z,100488.75
2022-10-05T22:07:18.276Z,100480.28
2022-10-05T22:09:51.526Z,100477.47
2022-10-05T22:12:20.335Z,100470.75
2022-10-05T22:14:47.462Z,100467.16
2022-10-05T22:17:43.596Z,100468.16
2022-10-05T22:20:12.139Z,100467.56
2022-10-05T22:22:38.772Z,100462.28
2022-10-05T22:25:05.982Z,100467.31
2022-10-05T22:27:33.492Z,100461.25
2022-10-05T22:30:01.263Z,100456.16
2022-10-05T22:32:28.104Z,100453.34
2022-10-05T22:34:54.742Z,100455.22
2022-10-05T22:37:21.435Z,100459.69
2022-10-05T22:39:49.132Z,100450.00
2022-10-05T22:42:15.834Z,100451.91
2022-10-05T22:44:42.583Z,100452.78
2022-10-05T22:47:09.555Z,100450.50
2022-10-05T22:49:36.303Z,100451.25
2022-10-05T22:52:03.005Z,100458.41
2022-10-05T22:54:31.739Z,100450.00
2022-10-05T22:56:59.994Z,100448.59
2022-10-05T22:59:26.833Z,100442.94
2022-10-05T23:01:53.831Z,100445.63
2022-10-05T23:04:20.684Z,100449.25
2022-10-05T23:06:47.505Z,100439.75
2022-10-05T23:09:14.376Z,100443.44
2022-10-05T23:11:41.146Z,100440.78
2022-10-05T23:14:07.948Z,100438.41
2022-10-05T23:16:34.702Z,100435.03
2022-10-05T23:19:01.549Z,100427.78
2022-10-05T23:21:29.457Z,100425.38
2022-10-05T23:23:56.164Z,100427.13
2022-10-05T23:26:24.097Z,100420.59
2022-10-05T23:28:50.961Z,100428.31
2022-10-05T23:31:19.209Z,100415.91
2022-10-05T23:33:45.933Z,100409.25
2022-10-05T23:36:13.943Z,100411.91
2022-10-05T23:38:40.900Z,100402.28
2022-10-05T23:41:08.886Z,100407.34
2022-10-05T23:43:36.930Z,100409.25
2022-10-05T23:46:05.051Z,100407.69
2022-10-05T23:48:32.499Z,100405.03
2022-10-05T23:50:59.914Z,100404.97
2022-10-05T23:53:26.902Z,100404.72
2022-10-05T23:55:53.793Z,100403.56
2022-10-05T23:58:21.045Z,100401.13
